Time;durP1;ratioP1;P1;durP2;ratioP2;P2;SDS_P1;SDS_P2;PMS_P1;PMS_P2;Temp;Humidity;BMP_temperature;BMP_pressure;BME280_temperature;BME280_humidity;BME280_pressure;Samples;Min_cycle;Max_cycle;Signal;HPM_P1;HPM_P2
2021/06/21 00:00:57;;;;;;;;;;;;;;;23.52;73.46;100309.89;1758269;79;20173;-63
2021/06/21 00:03:23;;;;;;;;;;;;;;;23.57;73.46;100308.27;1759812;79;20492;-63
2021/06/21 00:05:49;;;;;;;;;;;;;;;23.61;73.44;100315.31;1751613;79;20823;-63
2021/06/21 00:08:15;;;;;;;;;;;;;;;23.63;73.43;100311.63;1761065;79;20749;-63
2021/06/21 00:10:41;;;;;;;;;;;;;;;23.65;73.41;100308.71;1757885;79;20218;-63
2021/06/21 00:13:07;;;;;;;;;;;;;;;23.68;73.39;100314.95;1759333;79;20182;-63
2021/06/21 00:15:33;;;;;;;;;;;;;;;23.70;73.39;100312.41;1762124;79;20175;-63
2021/06/21 00:17:59;;;;;;;;;;;;;;;23.70;73.36;100313.22;1764471;79;20120;-63
2021/06/21 00:20:25;;;;;;;;;;;;;;;23.70;73.35;100320.73;1759727;79;21913;-63
2021/06/21 00:22:52;;;;;;;;;;;;;;;23.69;73.31;100315.76;1752520;80;20145;-63
2021/06/21 00:25:19;;;;;;;;;;;;;;;23.68;73.26;100328.63;1759984;79;20449;-63
2021/06/21 00:27:44;;;;;;;;;;;;;;;23.64;73.21;100329.30;1757307;79;20534;-64
2021/06/21 00:30:12;;;;;;;;;;;;;;;23.59;73.19;100323.98;1757013;79;20261;-63
2021/06/21 00:32:39;;;;;;;;;;;;;;;23.55;73.17;100329.23;1756494;80;21021;-63
2021/06/21 00:35:07;;;;;;;;;;;;;;;23.51;73.17;100329.09;1764727;79;20100;-63
2021/06/21 00:37:33;;;;;;;;;;;;;;;23.46;73.17;100319.63;1756984;79;20208;-63
2021/06/21 00:39:59;;;;;;;;;;;;;;;23.42;73.17;100320.06;1758329;79;20430;-63
2021/06/21 00:42:25;;;;;;;;;;;;;;;23.37;73.19;100320.30;1755516;79;20165;-64
2021/06/21 00:44:51;;;;;;;;;;;;;;;23.33;73.20;100322.72;1758783;79;21070;-64
2021/06/21 00:47:18;;;;;;;;;;;;;;;23.30;73.18;100318.66;1759492;79;20175;-65
2021/06/21 00:49:44;;;;;;;;;;;;;;;23.29;73.22;100317.64;1750427;80;20162;-64
2021/06/21 00:52:15;;;;;;;;;;;;;;;23.29;73.28;100314.86;1748516;80;20141;-64
2021/06/21 00:54:38;;;;;;;;;;;;;;;23.28;73.35;100308.50;1762765;80;20137;-64
2021/06/21 00:57:05;;;;;;;;;;;;;;;23.28;73.43;100304.34;1759097;80;21072;-64
2021/06/21 00:59:30;;;;;;;;;;;;;;;23.30;73.51;100304.78;1759864;80;20250;-62
2021/06/21 01:01:56;;;;;;;;;;;;;;;23.33;73.58;100302.72;1760306;80;20191;-62
2021/06/21 01:04:22;;;;;;;;;;;;;;;23.36;73.60;100295.65;1721792;81;20472;-62
2021/06/21 01:06:48;;;;;;;;;;;;;;;23.38;73.64;100294.13;1759961;80;20290;-61
2021/06/21 01:09:14;;;;;;;;;;;;;;;23.42;73.64;100288.72;1753829;80;21041;-61
2021/06/21 01:11:50;;;;;;;;;;;;;;;23.46;73.65;100291.87;1749540;80;20179;-61
2021/06/21 01:14:25;;;;;;;;;;;;;;;23.49;73.65;100297.29;1752652;80;20317;-61
2021/06/21 01:16:55;;;;;;;;;;;;;;;23.52;73.62;100291.03;1762769;80;20398;-62
2021/06/21 01:19:36;;;;;;;;;;;;;;;23.54;73.62;100290.92;1760595;80;20192;-61
2021/06/21 01:22:09;;;;;;;;;;;;;;;23.57;73.61;100296.34;1764417;79;21760;-61
2021/06/21 01:24:58;;;;;;;;;;;;;;;23.60;73.58;100295.06;1757929;80;20204;-61
2021/06/21 01:27:51;;;;;;;;;;;;;;;23.61;73.53;100291.13;1759066;80;20192;-62
2021/06/21 01:30:36;;;;;;;;;;;;;;;23.63;73.52;100292.18;1761192;79;20435;-62
2021/06/21 01:33:03;;;;;;;;;;;;;;;23.62;73.51;100291.95;1762285;80;20165;-61
2021/06/21 01:35:35;;;;;;;;;;;;;;;23.59;73.43;100294.83;1764621;80;23273;-61
2021/06/21 01:38:02;;;;;;;;;;;;;;;23.56;73.38;100288.59;1760007;80;20230;-62
2021/06/21 01:40:30;;;;;;;;;;;;;;;23.53;73.35;100292.66;1763864;79;20138;-62
2021/06/21 01:42:58;;;;;;;;;;;;;;;23.50;73.32;100283.64;1763075;79;20148;-61
2021/06/21 01:45:24;;;;;;;;;;;;;;;23.44;73.30;100285.84;1741429;78;20254;-62
2021/06/21 01:47:50;;;;;;;;;;;;;;;23.39;73.29;100287.43;1722448;81;20960;-62
2021/06/21 01:50:18;;;;;;;;;;;;;;;23.36;73.29;100296.47;1730167;80;21634;-61
2021/06/21 01:52:44;;;;;;;;;;;;;;;23.31;73.32;100293.11;1730893;80;20162;-61
2021/06/21 01:55:12;;;;;;;;;;;;;;;23.27;73.33;100293.00;1730403;80;20485;-61
2021/06/21 01:57:38;;;;;;;;;;;;;;;23.22;73.34;100291.84;1730961;80;20189;-61
2021/06/21 02:00:07;;;;;;;;;;;;;;;23.19;73.36;100284.21;1736607;80;21107;-61
2021/06/21 02:02:33;;;;;;;;;;;;;;;23.19;73.38;100291.15;1737072;80;20188;-61
2021/06/21 02:04:59;;;;;;;;;;;;;;;23.18;73.44;100291.73;1730403;80;20737;-61
2021/06/21 02:07:25;;;;;;;;;;;;;;;23.17;73.53;100279.00;1728142;80;20267;-61
2021/06/21 02:09:52;;;;;;;;;;;;;;;23.20;73.58;100288.61;1731215;80;20803;-62
2021/06/21 02:12:19;;;;;;;;;;;;;;;23.21;73.68;100278.53;1727150;80;21181;-62
2021/06/21 02:14:48;;;;;;;;;;;;;;;23.24;73.73;100279.82;1728420;80;20140;-61
2021/06/21 02:17:17;;;;;;;;;;;;;;;23.28;73.75;100284.09;1728734;80;20182;-61
2021/06/21 02:19:43;;;;;;;;;;;;;;;23.31;73.78;100291.14;1719778;80;20197;-61
2021/06/21 02:22:09;;;;;;;;;;;;;;;23.35;73.79;100290.67;1735586;80;20214;-62
2021/06/21 02:24:36;;;;;;;;;;;;;;;23.38;73.78;100291.96;1725501;80;21029;-61
2021/06/21 02:27:03;;;;;;;;;;;;;;;23.40;73.76;100294.61;1726323;80;20215;-61
2021/06/21 02:29:29;;;;;;;;;;;;;;;23.43;73.77;100293.93;1731229;80;20228;-61
2021/06/21 02:31:55;;;;;;;;;;;;;;;23.47;73.73;100294.03;1733703;80;20671;-61
2021/06/21 02:34:21;;;;;;;;;;;;;;;23.47;73.71;100290.69;1724149;81;20823;-61
2021/06/21 02:36:48;;;;;;;;;;;;;;;23.50;73.69;100285.84;1733177;80;21173;-63
2021/06/21 02:39:14;;;;;;;;;;;;;;;23.51;73.67;100286.05;1730603;80;20276;-62
2021/06/21 02:41:40;;;;;;;;;;;;;;;23.52;73.66;100278.53;1728630;81;20235;-61
2021/06/21 02:44:06;;;;;;;;;;;;;;;23.53;73.66;100281.55;1729520;80;20250;-62
2021/06/21 02:46:32;;;;;;;;;;;;;;;23.51;73.61;100281.89;1734277;80;20186;-61
2021/06/21 02:48:58;;;;;;;;;;;;;;;23.50;73.58;100282.25;1751733;79;21686;-62
2021/06/21 02:51:30;;;;;;;;;;;;;;;23.48;73.54;100278.43;1767452;79;20220;-61
2021/06/21 02:54:06;;;;;;;;;;;;;;;23.44;73.50;100279.47;1759273;79;20145;-62
2021/06/21 02:56:51;;;;;;;;;;;;;;;23.41;73.46;100276.80;1765824;79;20144;-61
2021/06/21 02:59:18;;;;;;;;;;;;;;;23.36;73.44;100273.44;1717515;82;20243;-63
2021/06/21 03:01:47;;;;;;;;;;;;;;;23.31;73.44;100277.84;1730712;81;21066;-64
2021/06/21 03:04:13;;;;;;;;;;;;;;;23.27;73.43;100281.08;1702100;81;20188;-63
2021/06/21 03:06:40;;;;;;;;;;;;;;;23.21;73.43;100271.59;1775382;79;20219;-64
2021/06/21 03:09:07;;;;;;;;;;;;;;;23.17;73.45;100278.19;1778536;79;20132;-64
2021/06/21 03:11:33;;;;;;;;;;;;;;;23.14;73.46;100273.34;1777158;78;20188;-64
2021/06/21 03:13:59;;;;;;;;;;;;;;;23.13;73.46;100268.94;1764022;79;21224;-64
2021/06/21 03:16:27;;;;;;;;;;;;;;;23.11;73.52;100269.30;1771466;79;20841;-64
2021/06/21 03:18:53;;;;;;;;;;;;;;;23.12;73.58;100272.89;1766514;79;20221;-65
2021/06/21 03:21:19;;;;;;;;;;;;;;;23.12;73.66;100270.93;1768235;79;20129;-64
2021/06/21 03:23:47;;;;;;;;;;;;;;;23.15;73.73;100273.58;1763628;79;20145;-64
2021/06/21 03:26:13;;;;;;;;;;;;;;;23.17;73.78;100274.84;1712503;81;21316;-63
2021/06/21 03:28:39;;;;;;;;;;;;;;;23.21;73.82;100286.86;1736638;81;20141;-64
2021/06/21 03:31:06;;;;;;;;;;;;;;;23.24;73.85;100281.21;1738449;80;20807;-63
2021/06/21 03:33:32;;;;;;;;;;;;;;;23.29;73.84;100290.70;1733218;81;20152;-63
2021/06/21 03:35:58;;;;;;;;;;;;;;;23.32;73.87;100286.40;1760904;79;20149;-64
2021/06/21 03:38:26;;;;;;;;;;;;;;;23.35;73.84;100287.89;1762829;79;21085;-64
2021/06/21 03:40:53;;;;;;;;;;;;;;;23.39;73.82;100289.39;1760980;79;20378;-64
2021/06/21 03:43:20;;;;;;;;;;;;;;;23.41;73.81;100295.42;1720179;82;20160;-63
2021/06/21 03:45:50;;;;;;;;;;;;;;;23.45;73.79;100291.63;1701905;82;20446;-63
2021/06/21 03:48:16;;;;;;;;;;;;;;;23.47;73.75;100294.03;1702295;83;20208;-64
2021/06/21 03:50:42;;;;;;;;;;;;;;;23.48;73.73;100289.53;1738252;80;21182;-63
2021/06/21 03:53:08;;;;;;;;;;;;;;;23.51;73.72;100295.77;1728504;80;20286;-64
2021/06/21 03:55:34;;;;;;;;;;;;;;;23.51;73.68;100290.22;1696200;82;20219;-64
2021/06/21 03:58:00;;;;;;;;;;;;;;;23.51;73.65;100292.99;1691631;82;20276;-64
2021/06/21 04:00:28;;;;;;;;;;;;;;;23.50;73.61;100289.20;1713392;81;20458;-64
2021/06/21 04:02:56;;;;;;;;;;;;;;;23.47;73.56;100296.23;1706297;81;21164;-63
2021/06/21 04:05:22;;;;;;;;;;;;;;;23.46;73.50;100298.00;1708513;81;20420;-63
2021/06/21 04:07:48;;;;;;;;;;;;;;;23.42;73.46;100292.88;1708424;81;20183;-64
2021/06/21 04:10:16;;;;;;;;;;;;;;;23.38;73.44;100296.91;1707771;81;20224;-63
2021/06/21 04:12:42;;;;;;;;;;;;;;;23.35;73.42;100298.19;1705818;81;20133;-63
2021/06/21 04:15:10;;;;;;;;;;;;;;;23.30;73.40;100294.28;1706358;81;21656;-64
2021/06/21 04:17:36;;;;;;;;;;;;;;;23.25;73.42;100294.52;1710840;81;20418;-64
2021/06/21 04:20:04;;;;;;;;;;;;;;;23.19;73.42;100292.54;1714441;81;20233;-64
2021/06/21 04:22:30;;;;;;;;;;;;;;;23.15;73.41;100286.88;1707197;81;20447;-64
2021/06/21 04:24:56;;;;;;;;;;;;;;;23.13;73.44;100292.52;1707639;82;20327;-63
2021/06/21 04:27:22;;;;;;;;;;;;;;;23.12;73.46;100298.68;1706110;82;23325;-62
2021/06/21 04:29:49;;;;;;;;;;;;;;;23.13;73.54;100304.44;1706673;82;20188;-62
2021/06/21 04:32:15;;;;;;;;;;;;;;;23.15;73.60;100304.10;1707710;82;20193;-62
2021/06/21 04:34:41;;;;;;;;;;;;;;;23.17;73.66;100306.75;1705252;81;20682;-62
2021/06/21 04:37:07;;;;;;;;;;;;;;;23.20;73.71;100308.05;1706615;81;20182;-63
2021/06/21 04:39:32;;;;;;;;;;;;;;;23.23;73.75;100306.77;1707059;81;21969;-63
2021/06/21 04:41:58;;;;;;;;;;;;;;;23.29;73.81;100306.54;1708114;81;20163;-63
2021/06/21 04:44:24;;;;;;;;;;;;;;;23.32;73.80;100305.26;1704788;82;20219;-64
2021/06/21 04:46:50;;;;;;;;;;;;;;;23.36;73.78;100306.18;1709740;82;20211;-62
2021/06/21 04:49:17;;;;;;;;;;;;;;;23.40;73.80;100311.27;1712130;82;20316;-62
2021/06/21 04:51:44;;;;;;;;;;;;;;;23.44;73.77;100308.63;1715491;82;21121;-64
2021/06/21 04:54:11;;;;;;;;;;;;;;;23.47;73.74;100311.51;1712856;81;20207;-65
2021/06/21 04:56:37;;;;;;;;;;;;;;;23.49;73.71;100310.59;1712960;81;20673;-65
2021/06/21 04:59:04;;;;;;;;;;;;;;;23.52;73.72;100312.66;1710773;82;20615;-64
2021/06/21 05:01:30;;;;;;;;;;;;;;;23.55;73.70;100315.34;1703116;82;20379;-63
2021/06/21 05:03:57;;;;;;;;;;;;;;;23.57;73.67;100321.34;1704487;82;21833;-65
2021/06/21 05:06:23;;;;;;;;;;;;;;;23.59;73.66;100320.42;1709450;82;20204;-64
2021/06/21 05:08:49;;;;;;;;;;;;;;;23.58;73.66;100326.55;1708753;83;20207;-64
2021/06/21 05:11:14;;;;;;;;;;;;;;;23.60;73.65;100327.58;1711826;81;20278;-65
2021/06/21 05:13:40;;;;;;;;;;;;;;;23.59;73.62;100332.92;1709485;83;20824;-64
2021/06/21 05:16:08;;;;;;;;;;;;;;;23.56;73.59;100334.98;1713141;81;22039;-64
2021/06/21 05:18:34;;;;;;;;;;;;;;;23.54;73.56;100338.70;1694499;83;20427;-64
2021/06/21 05:21:00;;;;;;;;;;;;;;;23.50;73.50;100344.16;1730852;80;20186;-65
2021/06/21 05:23:26;;;;;;;;;;;;;;;23.47;73.48;100342.63;1727406;80;22004;-64
2021/06/21 05:25:52;;;;;;;;;;;;;;;23.44;73.46;100350.27;1710543;82;20259;-64
2021/06/21 05:28:18;;;;;;;;;;;;;;;23.39;73.47;100342.95;1715207;82;21254;-65
2021/06/21 05:30:44;;;;;;;;;;;;;;;23.36;73.46;100345.05;1732283;81;20225;-64
2021/06/21 05:33:10;;;;;;;;;;;;;;;23.32;73.47;100341.92;1733812;81;20422;-64
2021/06/21 05:35:36;;;;;;;;;;;;;;;23.28;73.49;100342.38;1735154;81;20690;-64
2021/06/21 05:38:02;;;;;;;;;;;;;;;23.26;73.49;100346.06;1749097;80;20195;-62
2021/06/21 05:40:28;;;;;;;;;;;;;;;23.24;73.51;100345.05;1759963;79;20908;-60
2021/06/21 05:42:54;;;;;;;;;;;;;;;23.25;73.57;100337.53;1752201;80;20239;-62
2021/06/21 05:45:20;;;;;;;;;;;;;;;23.23;73.64;100341.45;1757763;79;20219;-62
2021/06/21 05:47:46;;;;;;;;;;;;;;;23.27;73.71;100339.37;1754983;79;20197;-61
2021/06/21 05:50:13;;;;;;;;;;;;;;;23.28;73.77;100333.48;1758323;79;20802;-61
2021/06/21 05:52:39;;;;;;;;;;;;;;;23.31;73.83;100338.33;1759774;79;21146;-62
2021/06/21 05:55:06;;;;;;;;;;;;;;;23.34;73.87;100339.02;1752375;79;20214;-62
2021/06/21 05:57:32;;;;;;;;;;;;;;;23.37;73.90;100344.47;1728090;80;20224;-61
2021/06/21 05:59:58;;;;;;;;;;;;;;;23.39;73.91;100342.95;1734244;81;20190;-61
2021/06/21 06:02:25;;;;;;;;;;;;;;;23.43;73.92;100342.52;1765452;78;20323;-60
2021/06/21 06:04:52;;;;;;;;;;;;;;;23.46;73.92;100340.45;1743720;79;21134;-61
2021/06/21 06:07:17;;;;;;;;;;;;;;;23.50;73.92;100341.38;1762654;80;20203;-60
2021/06/21 06:09:44;;;;;;;;;;;;;;;23.53;73.88;100338.47;1760849;79;20778;-60
2021/06/21 06:12:11;;;;;;;;;;;;;;;23.56;73.85;100341.35;1752361;81;20802;-61
2021/06/21 06:14:37;;;;;;;;;;;;;;;23.61;73.85;100338.92;1747415;79;20242;-60
2021/06/21 06:17:03;;;;;;;;;;;;;;;23.63;73.82;100339.39;1744209;80;21150;-62
2021/06/21 06:19:29;;;;;;;;;;;;;;;23.65;73.80;100344.00;1745559;80;20169;-60
2021/06/21 06:21:56;;;;;;;;;;;;;;;23.67;73.73;100338.92;1755565;78;20462;-61
2021/06/21 06:24:24;;;;;;;;;;;;;;;23.66;73.66;100331.74;1749638;80;20379;-62
2021/06/21 06:26:49;;;;;;;;;;;;;;;23.64;73.61;100333.47;1726849;80;20245;-61
2021/06/21 06:29:15;;;;;;;;;;;;;;;23.63;73.56;100336.62;1702632;82;21302;-64
2021/06/21 06:31:44;;;;;;;;;;;;;;;23.59;73.51;100332.31;1686803;84;20245;-62
2021/06/21 06:34:09;;;;;;;;;;;;;;;23.55;73.47;100332.78;1708631;81;20220;-61
2021/06/21 06:36:35;;;;;;;;;;;;;;;23.51;73.42;100324.92;1702018;83;20199;-62
2021/06/21 06:39:01;;;;;;;;;;;;;;;23.49;73.43;100334.77;1705445;82;20203;-62
2021/06/21 06:41:27;;;;;;;;;;;;;;;23.46;73.42;100334.09;1701972;81;21074;-63
2021/06/21 06:43:54;;;;;;;;;;;;;;;23.42;73.43;100331.75;1712395;82;20176;-63
2021/06/21 06:46:20;;;;;;;;;;;;;;;23.38;73.43;100330.83;1699406;82;20289;-64
2021/06/21 06:48:46;;;;;;;;;;;;;;;23.37;73.41;100338.34;1711008;83;20204;-62
2021/06/21 06:51:12;;;;;;;;;;;;;;;23.37;73.41;100330.59;1712954;81;20189;-63
2021/06/21 06:53:41;;;;;;;;;;;;;;;23.37;73.48;100338.91;1709170;83;20852;-63
2021/06/21 06:58:50;;;;;;;;;;;;;;;23.40;73.58;100334.05;1701530;81;20350;-63
2021/06/21 07:01:16;;;;;;;;;;;;;;;23.42;73.62;100332.56;1709684;81;20439;-65
2021/06/21 07:03:42;;;;;;;;;;;;;;;23.46;73.67;100332.13;1704771;81;20208;-63
2021/06/21 07:06:08;;;;;;;;;;;;;;;23.50;73.65;100339.17;1701465;81;21887;-63
2021/06/21 07:08:34;;;;;;;;;;;;;;;23.52;73.67;100336.27;1718094;81;20474;-63
2021/06/21 07:11:00;;;;;;;;;;;;;;;23.56;73.67;100342.74;1674311;84;20401;-62
2021/06/21 07:13:26;;;;;;;;;;;;;;;23.60;73.62;100347.83;1729859;81;20688;-62
2021/06/21 07:15:53;;;;;;;;;;;;;;;23.63;73.62;100344.38;1709249;83;20459;-63
2021/06/21 07:18:19;;;;;;;;;;;;;;;23.66;73.56;100344.24;1706748;81;21196;-62
2021/06/21 07:20:45;;;;;;;;;;;;;;;23.68;73.53;100349.66;1700066;81;20610;-63
2021/06/21 07:23:11;;;;;;;;;;;;;;;23.72;73.50;100353.94;1761778;80;20191;-62
2021/06/21 07:25:36;;;;;;;;;;;;;;;23.74;73.46;100349.43;1769395;80;20499;-63
2021/06/21 07:28:03;;;;;;;;;;;;;;;23.76;73.42;100354.88;1771390;79;20254;-62
2021/06/21 07:30:28;;;;;;;;;;;;;;;23.78;73.40;100353.13;1757876;79;21233;-62
2021/06/21 07:32:54;;;;;;;;;;;;;;;23.77;73.31;100352.31;1755249;79;20216;-62
2021/06/21 07:35:20;;;;;;;;;;;;;;;23.76;73.25;100351.30;1764941;79;20254;-62
2021/06/21 07:37:46;;;;;;;;;;;;;;;23.74;73.18;100349.43;1765587;79;20729;-62
2021/06/21 07:40:12;;;;;;;;;;;;;;;23.72;73.10;100347.59;1762045;79;20208;-63
2021/06/21 07:42:38;;;;;;;;;;;;;;;23.68;73.04;100350.23;1767927;79;21842;-63
2021/06/21 07:45:07;;;;;;;;;;;;;;;23.63;72.99;100351.31;1757408;79;20376;-63
2021/06/21 07:47:33;;;;;;;;;;;;;;;23.60;72.94;100349.79;1769689;79;20219;-63
2021/06/21 07:49:59;;;;;;;;;;;;;;;23.54;72.90;100353.41;1765337;79;20487;-64
2021/06/21 07:52:25;;;;;;;;;;;;;;;23.50;72.87;100352.48;1760726;79;20147;-63
2021/06/21 07:54:51;;;;;;;;;;;;;;;23.45;72.85;100348.55;1760836;79;21149;-64
2021/06/21 07:57:17;;;;;;;;;;;;;;;23.42;72.84;100353.95;1765080;79;20155;-63
2021/06/21 07:59:43;;;;;;;;;;;;;;;23.38;72.83;100346.09;1763476;79;20196;-65
2021/06/21 08:02:10;;;;;;;;;;;;;;;23.35;72.85;100342.60;1761158;79;20183;-63
2021/06/21 08:04:36;;;;;;;;;;;;;;;23.30;72.88;100339.48;1729504;80;20132;-62
2021/06/21 08:07:04;;;;;;;;;;;;;;;23.31;72.84;100350.01;1740038;81;21143;-62
2021/06/21 08:09:30;;;;;;;;;;;;;;;23.30;72.86;100342.86;1738405;81;20568;-64
2021/06/21 08:11:56;;;;;;;;;;;;;;;23.30;72.91;100342.86;1737804;80;20177;-62
2021/06/21 08:14:22;;;;;;;;;;;;;;;23.31;72.98;100342.49;1737894;80;20171;-62
2021/06/21 08:16:48;;;;;;;;;;;;;;;23.33;73.03;100344.36;1739335;80;20281;-62
2021/06/21 08:19:14;;;;;;;;;;;;;;;23.38;73.09;100344.70;1731291;81;21196;-62
2021/06/21 08:21:39;;;;;;;;;;;;;;;23.40;73.12;100351.52;1733476;80;20795;-62
2021/06/21 08:24:10;;;;;;;;;;;;;;;23.44;73.17;100359.41;1737902;80;20249;-61
2021/06/21 08:26:34;;;;;;;;;;;;;;;23.49;73.17;100357.80;1735503;80;20232;-62
2021/06/21 08:29:00;;;;;;;;;;;;;;;23.53;73.20;100358.72;1743603;81;20138;-62
2021/06/21 08:31:26;;;;;;;;;;;;;;;23.57;73.17;100358.25;1720081;81;21155;-63
2021/06/21 08:33:53;;;;;;;;;;;;;;;23.62;73.13;100360.80;1742180;80;20179;-63
2021/06/21 08:36:19;;;;;;;;;;;;;;;23.66;73.11;100363.11;1733195;80;20160;-63
2021/06/21 08:38:45;;;;;;;;;;;;;;;23.70;73.09;100363.79;1735983;80;20224;-63
2021/06/21 08:41:11;;;;;;;;;;;;;;;23.73;73.05;100361.12;1735228;81;20442;-62
2021/06/21 08:43:38;;;;;;;;;;;;;;;23.75;73.03;100359.39;1731254;80;21170;-63
2021/06/21 08:46:04;;;;;;;;;;;;;;;23.76;73.01;100357.66;1735054;80;20484;-63
2021/06/21 08:48:30;;;;;;;;;;;;;;;23.77;72.95;100359.84;1734863;81;20153;-63
2021/06/21 08:50:58;;;;;;;;;;;;;;;23.76;72.89;100356.85;1734911;80;20240;-63
2021/06/21 08:53:25;;;;;;;;;;;;;;;23.76;72.80;100355.46;1736625;81;20473;-63
2021/06/21 08:55:51;;;;;;;;;;;;;;;23.73;72.73;100353.36;1716500;81;20551;-60
2021/06/21 08:58:17;;;;;;;;;;;;;;;23.71;72.66;100357.08;1735154;80;20319;-61
2021/06/21 09:00:43;;;;;;;;;;;;;;;23.70;72.60;100365.17;1737668;81;20265;-61
2021/06/21 09:03:09;;;;;;;;;;;;;;;23.65;72.55;100360.09;1741049;80;20174;-61
2021/06/21 09:05:35;;;;;;;;;;;;;;;23.62;72.51;100355.24;1736468;80;20143;-60
2021/06/21 09:08:04;;;;;;;;;;;;;;;23.59;72.47;100350.36;1739588;80;21210;-61
2021/06/21 09:10:30;;;;;;;;;;;;;;;23.55;72.43;100349.45;1740735;80;20192;-60
2021/06/21 09:13:15;;;;;;;;;;;;;;;23.52;72.40;100349.34;1736252;80;20168;-62
2021/06/21 09:15:47;;;;;;;;;;;;;;;23.50;72.37;100347.50;1693008;82;20181;-61
2021/06/21 09:18:35;;;;;;;;;;;;;;;23.46;72.35;100347.39;1712163;82;20224;-61
2021/06/21 09:21:27;;;;;;;;;;;;;;;23.43;72.34;100348.61;1704162;82;21317;-59
2021/06/21 09:23:55;;;;;;;;;;;;;;;23.42;72.31;100345.63;1767377;78;20303;-59
2021/06/21 09:26:29;;;;;;;;;;;;;;;23.42;72.29;100345.05;1764879;79;20163;-60
2021/06/21 09:28:56;;;;;;;;;;;;;;;23.44;72.34;100348.31;1771529;79;21907;-61
2021/06/21 09:31:23;;;;;;;;;;;;;;;23.47;72.37;100352.34;1766889;80;20231;-60
2021/06/21 09:33:49;;;;;;;;;;;;;;;23.50;72.42;100350.28;1764305;79;21066;-61
2021/06/21 09:36:29;;;;;;;;;;;;;;;23.54;72.40;100347.84;1763832;79;20201;-60
2021/06/21 09:39:14;;;;;;;;;;;;;;;23.60;72.41;100347.02;1767472;79;20196;-60
2021/06/21 09:41:40;;;;;;;;;;;;;;;23.66;72.39;100342.86;1763255;79;20136;-59
2021/06/21 09:44:06;;;;;;;;;;;;;;;23.72;72.35;100348.38;1766090;79;20171;-60
2021/06/21 09:46:32;;;;;;;;;;;;;;;23.77;72.31;100345.37;1768159;79;23128;-60
2021/06/21 09:48:58;;;;;;;;;;;;;;;23.83;72.25;100344.56;1762869;79;20182;-61
2021/06/21 09:51:34;;;;;;;;;;;;;;;23.88;72.20;100352.08;1764716;79;20238;-59
2021/06/21 09:54:07;;;;;;;;;;;;;;;23.93;72.16;100344.08;1763184;79;21110;-60
2021/06/21 09:56:45;;;;;;;;;;;;;;;23.96;72.06;100344.77;1768725;79;20133;-60
2021/06/21 09:59:27;;;;;;;;;;;;;;;23.95;71.97;100343.95;1757513;79;21145;-60
2021/06/21 10:02:01;;;;;;;;;;;;;;;23.95;71.85;100343.14;1763104;79;20227;-61
2021/06/21 10:04:27;;;;;;;;;;;;;;;23.93;71.74;100344.87;1766344;79;20973;-60
2021/06/21 10:06:53;;;;;;;;;;;;;;;23.90;71.67;100348.93;1766254;79;21294;-60
2021/06/21 10:09:19;;;;;;;;;;;;;;;23.87;71.60;100344.08;1745126;79;20215;-60
2021/06/21 10:11:46;;;;;;;;;;;;;;;23.85;71.55;100346.42;1764177;79;20997;-60
2021/06/21 10:14:14;;;;;;;;;;;;;;;23.81;71.52;100347.67;1727148;80;20562;-60
2021/06/21 10:16:41;;;;;;;;;;;;;;;23.79;71.51;100353.36;1722100;81;20186;-61
2021/06/21 10:19:08;;;;;;;;;;;;;;;23.76;71.47;100355.46;1762172;79;20307;-61
2021/06/21 10:21:35;;;;;;;;;;;;;;;23.72;71.44;100355.94;1758462;79;20153;-61
2021/06/21 10:24:01;;;;;;;;;;;;;;;23.69;71.45;100354.64;1765409;79;21055;-60
2021/06/21 10:26:27;;;;;;;;;;;;;;;23.65;71.42;100356.50;1759419;79;20191;-60
2021/06/21 10:28:53;;;;;;;;;;;;;;;23.62;71.42;100355.24;1765679;79;20800;-61
2021/06/21 10:31:26;;;;;;;;;;;;;;;23.59;71.43;100351.75;1745017;80;20371;-61
2021/06/21 10:33:57;;;;;;;;;;;;;;;23.55;71.40;100349.45;1758371;79;20193;-60
2021/06/21 10:36:41;;;;;;;;;;;;;;;23.55;71.40;100355.00;1750983;79;21063;-61
2021/06/21 10:39:17;;;;;;;;;;;;;;;23.55;71.37;100348.05;1706913;81;20151;-59
2021/06/21 10:41:45;;;;;;;;;;;;;;;23.55;71.40;100345.28;1679077;83;20159;-61
2021/06/21 10:44:31;;;;;;;;;;;;;;;23.58;71.43;100351.55;1714567;81;20449;-61
2021/06/21 10:47:01;;;;;;;;;;;;;;;23.60;71.45;100347.02;1762871;79;20164;-61
2021/06/21 10:49:31;;;;;;;;;;;;;;;23.64;71.47;100349.32;1756589;79;21151;-60
2021/06/21 10:51:57;;;;;;;;;;;;;;;23.68;71.49;100348.85;1755067;80;20093;-61
2021/06/21 10:54:24;;;;;;;;;;;;;;;23.72;71.47;100351.16;1749220;80;20169;-61
2021/06/21 10:56:53;;;;;;;;;;;;;;;23.77;71.47;100349.53;1751242;79;20134;-60
2021/06/21 10:59:21;;;;;;;;;;;;;;;23.82;71.45;100351.27;1747965;79;20228;-60
2021/06/21 11:01:54;;;;;;;;;;;;;;;23.86;71.41;100351.61;1747308;79;21309;-60
2021/06/21 11:04:41;;;;;;;;;;;;;;;23.93;71.38;100353.81;1703457;82;20462;-60
2021/06/21 11:07:12;;;;;;;;;;;;;;;23.99;71.35;100351.00;1696775;82;20538;-59
2021/06/21 11:09:45;;;;;;;;;;;;;;;24.05;71.30;100349.03;1696422;83;20229;-59
2021/06/21 11:12:26;;;;;;;;;;;;;;;24.09;71.22;100351.33;1702807;83;20280;-59
2021/06/21 11:15:11;;;;;;;;;;;;;;;24.13;71.13;100350.85;1703058;82;23244;-60
2021/06/21 11:17:50;;;;;;;;;;;;;;;24.16;70.99;100352.72;1746405;80;21654;-60
2021/06/21 11:20:37;;;;;;;;;;;;;;;24.14;70.89;100345.50;1751477;79;20225;-59
2021/06/21 11:23:06;;;;;;;;;;;;;;;24.13;70.79;100338.34;1743012;80;21017;-60
2021/06/21 11:25:38;;;;;;;;;;;;;;;24.11;70.73;100341.23;1743351;80;20440;-60
2021/06/21 11:28:04;;;;;;;;;;;;;;;24.08;70.66;100341.37;1745624;80;21108;-61
2021/06/21 11:30:33;;;;;;;;;;;;;;;24.05;70.63;100345.44;1748644;80;20223;-60
2021/06/21 11:33:09;;;;;;;;;;;;;;;24.00;70.57;100346.48;1750324;80;20165;-60
2021/06/21 11:35:54;;;;;;;;;;;;;;;23.97;70.57;100346.39;1747742;80;20228;-60
2021/06/21 11:38:40;;;;;;;;;;;;;;;23.94;70.54;100342.32;1750229;80;20523;-60
2021/06/21 11:41:25;;;;;;;;;;;;;;;23.89;70.51;100337.00;1753554;80;21859;-60
2021/06/21 11:44:00;;;;;;;;;;;;;;;23.86;70.49;100331.34;1732034;80;20123;-60
2021/06/21 11:46:37;;;;;;;;;;;;;;;23.85;70.48;100338.09;1745335;80;20188;-61
2021/06/21 11:49:12;;;;;;;;;;;;;;;23.83;70.46;100334.84;1708723;82;21947;-60
2021/06/21 11:51:38;;;;;;;;;;;;;;;23.81;70.44;100342.13;1676214;83;20454;-60
2021/06/21 11:54:05;;;;;;;;;;;;;;;23.81;70.39;100344.08;1697944;82;21198;-61
2021/06/21 11:56:30;;;;;;;;;;;;;;;23.81;70.38;100337.95;1701537;83;20499;-60
2021/06/21 11:58:57;;;;;;;;;;;;;;;23.83;70.40;100327.89;1701470;82;20777;-61
2021/06/21 12:01:25;;;;;;;;;;;;;;;23.85;70.42;100315.86;1704992;81;20137;-61
2021/06/21 12:03:58;;;;;;;;;;;;;;;23.89;70.44;100314.00;1705122;82;20179;-61
2021/06/21 12:06:27;;;;;;;;;;;;;;;23.93;70.42;100332.97;1705788;81;21293;-60
2021/06/21 12:08:53;;;;;;;;;;;;;;;23.97;70.40;100329.72;1700574;81;20240;-61
2021/06/21 12:11:24;;;;;;;;;;;;;;;24.00;70.40;100327.04;1703712;82;20267;-61
2021/06/21 12:14:00;;;;;;;;;;;;;;;24.05;70.37;100316.26;1702798;82;20197;-60
2021/06/21 12:16:27;;;;;;;;;;;;;;;24.09;70.33;100313.81;1698512;83;20224;-60
2021/06/21 12:18:58;;;;;;;;;;;;;;;24.14;70.27;100310.75;1748878;80;21284;-60
2021/06/21 12:21:33;;;;;;;;;;;;;;;24.19;70.23;100317.28;1751078;79;20193;-60
2021/06/21 12:24:21;;;;;;;;;;;;;;;24.21;70.16;100312.16;1746805;80;20228;-60
2021/06/21 12:26:49;;;;;;;;;;;;;;;24.25;70.06;100321.41;1750993;79;20229;-60
2021/06/21 12:29:26;;;;;;;;;;;;;;;24.27;69.97;100321.88;1749967;80;20214;-60
2021/06/21 12:32:05;;;;;;;;;;;;;;;24.28;69.88;100326.26;1746844;80;21982;-60
2021/06/21 12:34:55;;;;;;;;;;;;;;;24.27;69.78;100325.47;1728575;81;20212;-61
2021/06/21 12:37:23;;;;;;;;;;;;;;;24.28;69.69;100320.70;1734738;80;20243;-60
2021/06/21 12:39:52;;;;;;;;;;;;;;;24.27;69.63;100327.44;1746270;80;20368;-60
2021/06/21 12:42:18;;;;;;;;;;;;;;;24.26;69.57;100329.41;1736632;80;20165;-61
2021/06/21 12:44:45;;;;;;;;;;;;;;;24.25;69.51;100330.56;1748268;80;21147;-60